sensor_id;sensor_type;location;lat;lon;timestamp;P1;durP1;ratioP1;P2;durP2;ratioP2
32705;SDS011;19094;50.972;3.538;2023-08-24T00:01:15;10.98;;;4.43;;
32705;SDS011;19094;50.972;3.538;2023-08-24T00:03:43;12.65;;;4.63;;
32705;SDS011;19094;50.972;3.538;2023-08-24T00:06:10;9.57;;;4.72;;
32705;SDS011;19094;50.972;3.538;2023-08-24T00:08:36;8.63;;;4.72;;
32705;SDS011;19094;50.972;3.538;2023-08-24T00:11:02;18.52;;;5.43;;
32705;SDS011;19094;50.972;3.538;2023-08-24T00:13:28;10.15;;;4.78;;
32705;SDS011;19094;50.972;3.538;2023-08-24T00:15:54;9.82;;;5.18;;
32705;SDS011;19094;50.972;3.538;2023-08-24T00:18:19;15.27;;;5.03;;
32705;SDS011;19094;50.972;3.538;2023-08-24T00:20:47;12.77;;;5.68;;
32705;SDS011;19094;50.972;3.538;2023-08-24T00:23:16;13.52;;;5.05;;
32705;SDS011;19094;50.972;3.538;2023-08-24T00:25:42;10.18;;;5.93;;
32705;SDS011;19094;50.972;3.538;2023-08-24T00:28:07;9.82;;;5.68;;
32705;SDS011;19094;50.972;3.538;2023-08-24T00:30:33;15.48;;;5.75;;
32705;SDS011;19094;50.972;3.538;2023-08-24T00:32:59;13.45;;;5.85;;
32705;SDS011;19094;50.972;3.538;2023-08-24T00:35:25;14.90;;;6.47;;
32705;SDS011;19094;50.972;3.538;2023-08-24T00:37:51;14.40;;;5.95;;
32705;SDS011;19094;50.972;3.538;2023-08-24T00:40:16;13.68;;;5.78;;
32705;SDS011;19094;50.972;3.538;2023-08-24T00:42:44;12.57;;;5.88;;
32705;SDS011;19094;50.972;3.538;2023-08-24T00:45:11;22.20;;;5.93;;
32705;SDS011;19094;50.972;3.538;2023-08-24T00:47:44;14.35;;;5.32;;
32705;SDS011;19094;50.972;3.538;2023-08-24T00:52:38;14.90;;;6.47;;
32705;SDS011;19094;50.972;3.538;2023-08-24T00:55:06;11.30;;;5.80;;
32705;SDS011;19094;50.972;3.538;2023-08-24T00:57:32;11.23;;;5.65;;
32705;SDS011;19094;50.972;3.538;2023-08-24T01:00:03;18.92;;;6.70;;
32705;SDS011;19094;50.972;3.538;2023-08-24T01:02:31;15.13;;;6.50;;
32705;SDS011;19094;50.972;3.538;2023-08-24T01:04:58;18.60;;;6.13;;
32705;SDS011;19094;50.972;3.538;2023-08-24T01:07:24;13.07;;;6.30;;
32705;SDS011;19094;50.972;3.538;2023-08-24T01:09:50;20.45;;;6.88;;
32705;SDS011;19094;50.972;3.538;2023-08-24T01:14:50;10.18;;;6.30;;
32705;SDS011;19094;50.972;3.538;2023-08-24T01:17:21;15.68;;;6.90;;
32705;SDS011;19094;50.972;3.538;2023-08-24T01:19:48;12.52;;;6.75;;
32705;SDS011;19094;50.972;3.538;2023-08-24T01:22:20;16.30;;;7.05;;
32705;SDS011;19094;50.972;3.538;2023-08-24T01:25:37;17.25;;;7.70;;
32705;SDS011;19094;50.972;3.538;2023-08-24T01:27:42;17.90;;;7.78;;
32705;SDS011;19094;50.972;3.538;2023-08-24T01:30:09;13.02;;;7.65;;
32705;SDS011;19094;50.972;3.538;2023-08-24T01:32:36;13.88;;;7.22;;
32705;SDS011;19094;50.972;3.538;2023-08-24T01:35:02;15.32;;;7.53;;
32705;SDS011;19094;50.972;3.538;2023-08-24T01:37:30;20.75;;;7.85;;
32705;SDS011;19094;50.972;3.538;2023-08-24T01:40:03;16.95;;;8.80;;
32705;SDS011;19094;50.972;3.538;2023-08-24T01:42:40;26.27;;;8.30;;
32705;SDS011;19094;50.972;3.538;2023-08-24T01:45:14;17.73;;;8.32;;
32705;SDS011;19094;50.972;3.538;2023-08-24T01:47:41;16.90;;;8.55;;
32705;SDS011;19094;50.972;3.538;2023-08-24T01:50:08;14.35;;;8.95;;
32705;SDS011;19094;50.972;3.538;2023-08-24T01:52:34;15.27;;;8.38;;
32705;SDS011;19094;50.972;3.538;2023-08-24T01:55:01;15.43;;;8.07;;
32705;SDS011;19094;50.972;3.538;2023-08-24T01:57:26;20.58;;;8.75;;
32705;SDS011;19094;50.972;3.538;2023-08-24T01:59:52;12.38;;;8.25;;
32705;SDS011;19094;50.972;3.538;2023-08-24T02:02:18;13.40;;;8.40;;
32705;SDS011;19094;50.972;3.538;2023-08-24T02:04:43;14.18;;;8.00;;
32705;SDS011;19094;50.972;3.538;2023-08-24T02:07:09;21.30;;;8.60;;
32705;SDS011;19094;50.972;3.538;2023-08-24T02:09:35;16.85;;;8.60;;
32705;SDS011;19094;50.972;3.538;2023-08-24T02:12:00;17.85;;;8.27;;
32705;SDS011;19094;50.972;3.538;2023-08-24T02:14:26;17.33;;;8.02;;
32705;SDS011;19094;50.972;3.538;2023-08-24T02:16:52;16.90;;;8.32;;
32705;SDS011;19094;50.972;3.538;2023-08-24T02:19:18;17.15;;;8.55;;
32705;SDS011;19094;50.972;3.538;2023-08-24T02:21:43;22.90;;;8.68;;
32705;SDS011;19094;50.972;3.538;2023-08-24T02:24:09;15.98;;;8.45;;
32705;SDS011;19094;50.972;3.538;2023-08-24T02:26:35;12.88;;;8.50;;
32705;SDS011;19094;50.972;3.538;2023-08-24T02:29:00;22.05;;;8.10;;
32705;SDS011;19094;50.972;3.538;2023-08-24T02:31:26;18.40;;;8.43;;
32705;SDS011;19094;50.972;3.538;2023-08-24T02:33:52;15.90;;;7.90;;
32705;SDS011;19094;50.972;3.538;2023-08-24T02:36:17;18.67;;;9.23;;
32705;SDS011;19094;50.972;3.538;2023-08-24T02:38:43;18.35;;;9.18;;
32705;SDS011;19094;50.972;3.538;2023-08-24T02:41:08;13.18;;;8.38;;
32705;SDS011;19094;50.972;3.538;2023-08-24T02:43:35;15.75;;;8.45;;
32705;SDS011;19094;50.972;3.538;2023-08-24T02:46:06;19.10;;;8.40;;
32705;SDS011;19094;50.972;3.538;2023-08-24T02:48:33;20.50;;;8.80;;
32705;SDS011;19094;50.972;3.538;2023-08-24T02:50:59;13.63;;;8.60;;
32705;SDS011;19094;50.972;3.538;2023-08-24T02:53:28;16.92;;;9.02;;
32705;SDS011;19094;50.972;3.538;2023-08-24T02:55:54;16.35;;;8.68;;
32705;SDS011;19094;50.972;3.538;2023-08-24T02:58:21;16.35;;;8.25;;
32705;SDS011;19094;50.972;3.538;2023-08-24T03:00:47;18.75;;;8.70;;
32705;SDS011;19094;50.972;3.538;2023-08-24T03:03:15;20.65;;;9.52;;
32705;SDS011;19094;50.972;3.538;2023-08-24T03:05:52;18.05;;;8.68;;
32705;SDS011;19094;50.972;3.538;2023-08-24T03:08:21;13.50;;;9.07;;
32705;SDS011;19094;50.972;3.538;2023-08-24T03:10:47;16.13;;;8.65;;
32705;SDS011;19094;50.972;3.538;2023-08-24T03:13:13;15.10;;;9.23;;
32705;SDS011;19094;50.972;3.538;2023-08-24T03:15:38;18.30;;;9.10;;
32705;SDS011;19094;50.972;3.538;2023-08-24T03:18:04;16.02;;;8.57;;
32705;SDS011;19094;50.972;3.538;2023-08-24T03:20:30;18.70;;;8.75;;
32705;SDS011;19094;50.972;3.538;2023-08-24T03:22:55;12.35;;;8.15;;
32705;SDS011;19094;50.972;3.538;2023-08-24T03:25:22;18.23;;;9.00;;
32705;SDS011;19094;50.972;3.538;2023-08-24T03:27:48;17.35;;;9.15;;
32705;SDS011;19094;50.972;3.538;2023-08-24T03:30:15;16.42;;;8.98;;
32705;SDS011;19094;50.972;3.538;2023-08-24T03:32:41;16.25;;;8.45;;
32705;SDS011;19094;50.972;3.538;2023-08-24T03:35:07;20.08;;;8.77;;
32705;SDS011;19094;50.972;3.538;2023-08-24T03:37:33;16.80;;;8.75;;
32705;SDS011;19094;50.972;3.538;2023-08-24T03:39:58;19.33;;;9.02;;
32705;SDS011;19094;50.972;3.538;2023-08-24T03:42:24;17.55;;;9.20;;
32705;SDS011;19094;50.972;3.538;2023-08-24T03:44:50;19.75;;;8.88;;
32705;SDS011;19094;50.972;3.538;2023-08-24T03:47:15;15.05;;;8.20;;
32705;SDS011;19094;50.972;3.538;2023-08-24T03:49:42;19.58;;;9.18;;
32705;SDS011;19094;50.972;3.538;2023-08-24T03:52:08;18.27;;;8.80;;
32705;SDS011;19094;50.972;3.538;2023-08-24T03:54:34;18.13;;;9.40;;
32705;SDS011;19094;50.972;3.538;2023-08-24T03:56:59;18.17;;;9.07;;
32705;SDS011;19094;50.972;3.538;2023-08-24T03:59:26;19.95;;;9.65;;
32705;SDS011;19094;50.972;3.538;2023-08-24T04:01:51;17.75;;;9.40;;
32705;SDS011;19094;50.972;3.538;2023-08-24T04:04:17;14.60;;;9.13;;
32705;SDS011;19094;50.972;3.538;2023-08-24T04:06:43;20.88;;;9.43;;
32705;SDS011;19094;50.972;3.538;2023-08-24T04:09:09;15.40;;;9.15;;
32705;SDS011;19094;50.972;3.538;2023-08-24T04:11:35;17.08;;;8.65;;
32705;SDS011;19094;50.972;3.538;2023-08-24T04:14:01;15.27;;;9.45;;
32705;SDS011;19094;50.972;3.538;2023-08-24T04:16:27;15.45;;;9.50;;
32705;SDS011;19094;50.972;3.538;2023-08-24T04:18:52;21.35;;;9.25;;
32705;SDS011;19094;50.972;3.538;2023-08-24T04:21:18;18.33;;;9.52;;
32705;SDS011;19094;50.972;3.538;2023-08-24T04:23:43;19.42;;;9.50;;
32705;SDS011;19094;50.972;3.538;2023-08-24T04:26:12;19.88;;;9.98;;
32705;SDS011;19094;50.972;3.538;2023-08-24T04:28:38;16.45;;;9.77;;
32705;SDS011;19094;50.972;3.538;2023-08-24T04:31:04;19.15;;;8.95;;
32705;SDS011;19094;50.972;3.538;2023-08-24T04:33:29;24.13;;;9.45;;
32705;SDS011;19094;50.972;3.538;2023-08-24T04:35:55;15.38;;;9.02;;
32705;SDS011;19094;50.972;3.538;2023-08-24T04:38:21;14.38;;;8.52;;
32705;SDS011;19094;50.972;3.538;2023-08-24T04:40:51;18.77;;;10.02;;
32705;SDS011;19094;50.972;3.538;2023-08-24T04:43:18;16.48;;;9.48;;
32705;SDS011;19094;50.972;3.538;2023-08-24T04:45:46;17.17;;;9.48;;
32705;SDS011;19094;50.972;3.538;2023-08-24T04:48:13;16.50;;;8.80;;
32705;SDS011;19094;50.972;3.538;2023-08-24T04:50:39;18.80;;;9.50;;
32705;SDS011;19094;50.972;3.538;2023-08-24T04:53:07;21.10;;;9.15;;
32705;SDS011;19094;50.972;3.538;2023-08-24T04:55:32;15.88;;;9.68;;
32705;SDS011;19094;50.972;3.538;2023-08-24T04:57:58;15.25;;;9.45;;
32705;SDS011;19094;50.972;3.538;2023-08-24T05:00:24;17.77;;;9.50;;
32705;SDS011;19094;50.972;3.538;2023-08-24T05:02:49;15.18;;;9.73;;
32705;SDS011;19094;50.972;3.538;2023-08-24T05:05:15;19.10;;;10.23;;
32705;SDS011;19094;50.972;3.538;2023-08-24T05:07:41;16.75;;;9.77;;
32705;SDS011;19094;50.972;3.538;2023-08-24T05:10:07;17.90;;;10.20;;
32705;SDS011;19094;50.972;3.538;2023-08-24T05:12:33;19.52;;;8.55;;
32705;SDS011;19094;50.972;3.538;2023-08-24T05:15:03;15.05;;;8.88;;
32705;SDS011;19094;50.972;3.538;2023-08-24T05:17:29;15.23;;;8.88;;
32705;SDS011;19094;50.972;3.538;2023-08-24T05:19:56;17.35;;;9.68;;
32705;SDS011;19094;50.972;3.538;2023-08-24T05:22:24;14.75;;;8.70;;
32705;SDS011;19094;50.972;3.538;2023-08-24T05:24:49;21.45;;;9.50;;
32705;SDS011;19094;50.972;3.538;2023-08-24T05:27:15;18.80;;;9.80;;
32705;SDS011;19094;50.972;3.538;2023-08-24T05:29:41;17.63;;;8.77;;
32705;SDS011;19094;50.972;3.538;2023-08-24T05:32:07;16.48;;;8.98;;
32705;SDS011;19094;50.972;3.538;2023-08-24T05:34:33;19.88;;;9.88;;
32705;SDS011;19094;50.972;3.538;2023-08-24T05:36:58;25.05;;;9.27;;
32705;SDS011;19094;50.972;3.538;2023-08-24T05:39:24;15.95;;;8.90;;
32705;SDS011;19094;50.972;3.538;2023-08-24T05:41:53;16.15;;;9.52;;
32705;SDS011;19094;50.972;3.538;2023-08-24T05:44:19;21.83;;;9.93;;
32705;SDS011;19094;50.972;3.538;2023-08-24T05:46:46;19.63;;;10.05;;
32705;SDS011;19094;50.972;3.538;2023-08-24T05:49:11;17.77;;;9.63;;
32705;SDS011;19094;50.972;3.538;2023-08-24T05:51:37;16.30;;;9.18;;
32705;SDS011;19094;50.972;3.538;2023-08-24T05:54:03;20.63;;;10.07;;
32705;SDS011;19094;50.972;3.538;2023-08-24T05:56:29;19.35;;;9.63;;
32705;SDS011;19094;50.972;3.538;2023-08-24T05:58:55;20.30;;;10.25;;
32705;SDS011;19094;50.972;3.538;2023-08-24T06:01:22;20.70;;;10.60;;
32705;SDS011;19094;50.972;3.538;2023-08-24T06:03:48;20.73;;;10.27;;
32705;SDS011;19094;50.972;3.538;2023-08-24T06:06:14;23.73;;;10.77;;
32705;SDS011;19094;50.972;3.538;2023-08-24T06:08:40;19.58;;;10.15;;
32705;SDS011;19094;50.972;3.538;2023-08-24T06:11:06;22.08;;;10.70;;
32705;SDS011;19094;50.972;3.538;2023-08-24T06:13:31;19.30;;;9.90;;
32705;SDS011;19094;50.972;3.538;2023-08-24T06:15:57;22.52;;;11.57;;
32705;SDS011;19094;50.972;3.538;2023-08-24T06:18:23;19.42;;;10.60;;
32705;SDS011;19094;50.972;3.538;2023-08-24T06:20:49;18.83;;;10.02;;
32705;SDS011;19094;50.972;3.538;2023-08-24T06:23:17;17.63;;;10.40;;
32705;SDS011;19094;50.972;3.538;2023-08-24T06:25:43;21.13;;;9.55;;
32705;SDS011;19094;50.972;3.538;2023-08-24T06:28:10;21.55;;;11.38;;
32705;SDS011;19094;50.972;3.538;2023-08-24T06:30:37;26.50;;;11.23;;
32705;SDS011;19094;50.972;3.538;2023-08-24T06:33:04;18.48;;;11.00;;
32705;SDS011;19094;50.972;3.538;2023-08-24T06:35:30;21.25;;;9.98;;
32705;SDS011;19094;50.972;3.538;2023-08-24T06:37:56;20.17;;;10.90;;
32705;SDS011;19094;50.972;3.538;2023-08-24T06:40:21;16.83;;;10.85;;
32705;SDS011;19094;50.972;3.538;2023-08-24T06:42:47;19.00;;;9.50;;
32705;SDS011;19094;50.972;3.538;2023-08-24T06:45:13;16.23;;;9.50;;
32705;SDS011;19094;50.972;3.538;2023-08-24T06:47:39;19.67;;;9.52;;
32705;SDS011;19094;50.972;3.538;2023-08-24T06:50:05;20.95;;;9.77;;
32705;SDS011;19094;50.972;3.538;2023-08-24T06:52:31;22.42;;;10.25;;
32705;SDS011;19094;50.972;3.538;2023-08-24T06:54:57;16.73;;;9.98;;
32705;SDS011;19094;50.972;3.538;2023-08-24T06:57:24;20.15;;;10.00;;
32705;SDS011;19094;50.972;3.538;2023-08-24T06:59:50;19.55;;;10.77;;
32705;SDS011;19094;50.972;3.538;2023-08-24T07:02:16;20.80;;;10.50;;
32705;SDS011;19094;50.972;3.538;2023-08-24T07:04:42;20.95;;;10.23;;
32705;SDS011;19094;50.972;3.538;2023-08-24T07:07:09;17.15;;;9.00;;
32705;SDS011;19094;50.972;3.538;2023-08-24T07:09:34;20.92;;;11.43;;
32705;SDS011;19094;50.972;3.538;2023-08-24T07:12:01;22.27;;;10.18;;
32705;SDS011;19094;50.972;3.538;2023-08-24T07:14:32;23.27;;;11.18;;
32705;SDS011;19094;50.972;3.538;2023-08-24T07:16:58;20.10;;;11.15;;
32705;SDS011;19094;50.972;3.538;2023-08-24T07:19:24;18.88;;;10.73;;
32705;SDS011;19094;50.972;3.538;2023-08-24T07:21:50;19.40;;;12.13;;
32705;SDS011;19094;50.972;3.538;2023-08-24T07:24:16;22.70;;;11.38;;
32705;SDS011;19094;50.972;3.538;2023-08-24T07:26:44;18.92;;;11.20;;
32705;SDS011;19094;50.972;3.538;2023-08-24T07:29:10;22.90;;;11.60;;
32705;SDS011;19094;50.972;3.538;2023-08-24T07:31:36;18.98;;;10.40;;
32705;SDS011;19094;50.972;3.538;2023-08-24T07:34:02;21.13;;;10.63;;
32705;SDS011;19094;50.972;3.538;2023-08-24T07:36:28;21.85;;;10.93;;
32705;SDS011;19094;50.972;3.538;2023-08-24T07:38:57;29.50;;;10.02;;
32705;SDS011;19094;50.972;3.538;2023-08-24T07:41:23;20.25;;;12.20;;
32705;SDS011;19094;50.972;3.538;2023-08-24T07:43:48;22.77;;;11.15;;
32705;SDS011;19094;50.972;3.538;2023-08-24T07:46:14;23.92;;;11.50;;
32705;SDS011;19094;50.972;3.538;2023-08-24T07:48:40;25.17;;;11.43;;
32705;SDS011;19094;50.972;3.538;2023-08-24T07:51:06;19.25;;;11.60;;
32705;SDS011;19094;50.972;3.538;2023-08-24T07:53:32;21.67;;;10.80;;
32705;SDS011;19094;50.972;3.538;2023-08-24T07:55:58;26.35;;;10.57;;
32705;SDS011;19094;50.972;3.538;2023-08-24T07:58:25;24.05;;;10.20;;
32705;SDS011;19094;50.972;3.538;2023-08-24T08:00:51;19.35;;;10.88;;
32705;SDS011;19094;50.972;3.538;2023-08-24T08:03:17;18.85;;;11.25;;
32705;SDS011;19094;50.972;3.538;2023-08-24T08:05:46;21.38;;;11.43;;
32705;SDS011;19094;50.972;3.538;2023-08-24T08:08:15;20.48;;;11.68;;
32705;SDS011;19094;50.972;3.538;2023-08-24T08:10:41;20.23;;;11.60;;
32705;SDS011;19094;50.972;3.538;2023-08-24T08:13:08;23.17;;;12.18;;
32705;SDS011;19094;50.972;3.538;2023-08-24T08:15:37;21.70;;;11.38;;
32705;SDS011;19094;50.972;3.538;2023-08-24T08:18:03;22.95;;;11.65;;
32705;SDS011;19094;50.972;3.538;2023-08-24T08:20:30;19.95;;;11.68;;
32705;SDS011;19094;50.972;3.538;2023-08-24T08:22:56;20.35;;;11.85;;
32705;SDS011;19094;50.972;3.538;2023-08-24T08:25:21;18.23;;;10.35;;
32705;SDS011;19094;50.972;3.538;2023-08-24T08:27:47;22.83;;;12.18;;
32705;SDS011;19094;50.972;3.538;2023-08-24T08:30:14;23.40;;;13.18;;
32705;SDS011;19094;50.972;3.538;2023-08-24T08:32:40;31.60;;;13.07;;
32705;SDS011;19094;50.972;3.538;2023-08-24T08:35:07;30.60;;;13.35;;
32705;SDS011;19094;50.972;3.538;2023-08-24T08:37:34;18.67;;;12.38;;
32705;SDS011;19094;50.972;3.538;2023-08-24T08:40:01;23.20;;;12.57;;
32705;SDS011;19094;50.972;3.538;2023-08-24T08:42:31;21.90;;;13.07;;
32705;SDS011;19094;50.972;3.538;2023-08-24T08:44:58;21.88;;;12.65;;
32705;SDS011;19094;50.972;3.538;2023-08-24T08:47:27;33.70;;;12.30;;
32705;SDS011;19094;50.972;3.538;2023-08-24T08:49:53;30.85;;;12.80;;
32705;SDS011;19094;50.972;3.538;2023-08-24T08:52:20;24.73;;;12.35;;
32705;SDS011;19094;50.972;3.538;2023-08-24T08:54:46;24.05;;;12.45;;
32705;SDS011;19094;50.972;3.538;2023-08-24T08:57:11;33.33;;;13.25;;
32705;SDS011;19094;50.972;3.538;2023-08-24T08:59:39;22.52;;;11.65;;
32705;SDS011;19094;50.972;3.538;2023-08-24T09:02:06;24.67;;;12.07;;
32705;SDS011;19094;50.972;3.538;2023-08-24T09:04:38;20.67;;;12.07;;
32705;SDS011;19094;50.972;3.538;2023-08-24T09:07:04;21.90;;;11.85;;
32705;SDS011;19094;50.972;3.538;2023-08-24T09:09:35;20.30;;;11.95;;
32705;SDS011;19094;50.972;3.538;2023-08-24T09:12:02;29.33;;;12.65;;
32705;SDS011;19094;50.972;3.538;2023-08-24T09:14:30;25.63;;;11.95;;
32705;SDS011;19094;50.972;3.538;2023-08-24T09:16:56;26.08;;;11.68;;
32705;SDS011;19094;50.972;3.538;2023-08-24T09:19:27;21.42;;;11.18;;
32705;SDS011;19094;50.972;3.538;2023-08-24T09:21:56;21.70;;;11.80;;
32705;SDS011;19094;50.972;3.538;2023-08-24T09:24:29;21.30;;;10.18;;
32705;SDS011;19094;50.972;3.538;2023-08-24T09:26:57;24.23;;;9.98;;
32705;SDS011;19094;50.972;3.538;2023-08-24T09:29:22;21.58;;;9.60;;
32705;SDS011;19094;50.972;3.538;2023-08-24T09:31:50;23.67;;;9.27;;
32705;SDS011;19094;50.972;3.538;2023-08-24T09:34:18;21.75;;;9.68;;
32705;SDS011;19094;50.972;3.538;2023-08-24T09:36:48;12.05;;;7.45;;
32705;SDS011;19094;50.972;3.538;2023-08-24T09:39:16;15.93;;;6.93;;
32705;SDS011;19094;50.972;3.538;2023-08-24T09:41:46;21.27;;;7.60;;
32705;SDS011;19094;50.972;3.538;2023-08-24T09:44:14;15.05;;;6.95;;
32705;SDS011;19094;50.972;3.538;2023-08-24T09:46:40;19.20;;;6.30;;
32705;SDS011;19094;50.972;3.538;2023-08-24T09:49:06;15.70;;;6.18;;
32705;SDS011;19094;50.972;3.538;2023-08-24T09:51:34;16.98;;;7.57;;
32705;SDS011;19094;50.972;3.538;2023-08-24T09:54:10;17.83;;;7.78;;
32705;SDS011;19094;50.972;3.538;2023-08-24T09:56:38;12.95;;;7.10;;
32705;SDS011;19094;50.972;3.538;2023-08-24T10:01:40;13.03;;;7.73;;
32705;SDS011;19094;50.972;3.538;2023-08-24T10:04:09;19.98;;;7.72;;
32705;SDS011;19094;50.972;3.538;2023-08-24T10:06:36;14.73;;;7.00;;
32705;SDS011;19094;50.972;3.538;2023-08-24T10:09:06;12.48;;;6.25;;
32705;SDS011;19094;50.972;3.538;2023-08-24T10:11:40;22.63;;;7.68;;
32705;SDS011;19094;50.972;3.538;2023-08-24T10:14:24;15.20;;;6.72;;
32705;SDS011;19094;50.972;3.538;2023-08-24T10:19:22;10.52;;;6.03;;
32705;SDS011;19094;50.972;3.538;2023-08-24T10:21:48;10.43;;;5.28;;
32705;SDS011;19094;50.972;3.538;2023-08-24T10:24:16;16.13;;;5.70;;
32705;SDS011;19094;50.972;3.538;2023-08-24T10:26:42;19.35;;;6.38;;
32705;SDS011;19094;50.972;3.538;2023-08-24T10:29:08;7.80;;;4.93;;
32705;SDS011;19094;50.972;3.538;2023-08-24T10:31:35;7.40;;;5.28;;
32705;SDS011;19094;50.972;3.538;2023-08-24T10:34:01;14.02;;;5.78;;
32705;SDS011;19094;50.972;3.538;2023-08-24T10:36:27;9.90;;;5.25;;
32705;SDS011;19094;50.972;3.538;2023-08-24T10:38:57;7.45;;;4.85;;
32705;SDS011;19094;50.972;3.538;2023-08-24T10:41:36;16.30;;;5.85;;
32705;SDS011;19094;50.972;3.538;2023-08-24T10:44:21;16.45;;;6.50;;
32705;SDS011;19094;50.972;3.538;2023-08-24T10:47:12;9.02;;;5.18;;
32705;SDS011;19094;50.972;3.538;2023-08-24T10:49:59;11.50;;;6.00;;
32705;SDS011;19094;50.972;3.538;2023-08-24T10:52:30;10.45;;;5.35;;
32705;SDS011;19094;50.972;3.538;2023-08-24T10:55:00;8.27;;;4.82;;
32705;SDS011;19094;50.972;3.538;2023-08-24T10:57:37;14.48;;;5.13;;
32705;SDS011;19094;50.972;3.538;2023-08-24T11:00:09;8.27;;;4.60;;
32705;SDS011;19094;50.972;3.538;2023-08-24T11:02:47;11.48;;;5.22;;
32705;SDS011;19094;50.972;3.538;2023-08-24T11:05:18;25.73;;;5.60;;
32705;SDS011;19094;50.972;3.538;2023-08-24T11:07:57;10.63;;;5.20;;
32705;SDS011;19094;50.972;3.538;2023-08-24T11:10:25;8.60;;;5.00;;
32705;SDS011;19094;50.972;3.538;2023-08-24T11:13:05;10.40;;;5.10;;
32705;SDS011;19094;50.972;3.538;2023-08-24T11:15:33;11.90;;;4.57;;
32705;SDS011;19094;50.972;3.538;2023-08-24T11:18:20;7.53;;;4.25;;
32705;SDS011;19094;50.972;3.538;2023-08-24T11:23:19;6.95;;;3.92;;
32705;SDS011;19094;50.972;3.538;2023-08-24T11:25:45;10.05;;;4.40;;
32705;SDS011;19094;50.972;3.538;2023-08-24T11:28:16;7.85;;;4.57;;
32705;SDS011;19094;50.972;3.538;2023-08-24T11:30:45;6.38;;;4.15;;
32705;SDS011;19094;50.972;3.538;2023-08-24T11:33:11;8.90;;;4.70;;
32705;SDS011;19094;50.972;3.538;2023-08-24T11:35:40;10.20;;;4.60;;
32705;SDS011;19094;50.972;3.538;2023-08-24T11:38:09;8.32;;;4.55;;
32705;SDS011;19094;50.972;3.538;2023-08-24T11:40:35;8.68;;;4.55;;
32705;SDS011;19094;50.972;3.538;2023-08-24T11:43:02;7.47;;;3.80;;
32705;SDS011;19094;50.972;3.538;2023-08-24T11:45:31;5.55;;;3.72;;
32705;SDS011;19094;50.972;3.538;2023-08-24T11:48:00;8.70;;;4.10;;
32705;SDS011;19094;50.972;3.538;2023-08-24T11:50:26;8.43;;;4.32;;
32705;SDS011;19094;50.972;3.538;2023-08-24T11:52:53;9.20;;;4.43;;
32705;SDS011;19094;50.972;3.538;2023-08-24T11:55:21;7.28;;;4.60;;
32705;SDS011;19094;50.972;3.538;2023-08-24T11:57:47;10.40;;;5.40;;
32705;SDS011;19094;50.972;3.538;2023-08-24T12:00:13;9.80;;;5.40;;
32705;SDS011;19094;50.972;3.538;2023-08-24T12:02:42;11.48;;;5.47;;
32705;SDS011;19094;50.972;3.538;2023-08-24T12:05:19;10.10;;;5.07;;
32705;SDS011;19094;50.972;3.538;2023-08-24T12:07:49;11.10;;;5.47;;
32705;SDS011;19094;50.972;3.538;2023-08-24T12:10:17;11.23;;;5.07;;
32705;SDS011;19094;50.972;3.538;2023-08-24T12:12:42;15.95;;;5.20;;
32705;SDS011;19094;50.972;3.538;2023-08-24T12:15:14;7.95;;;4.55;;
32705;SDS011;19094;50.972;3.538;2023-08-24T12:17:44;7.95;;;4.50;;
32705;SDS011;19094;50.972;3.538;2023-08-24T12:20:16;7.25;;;4.40;;
32705;SDS011;19094;50.972;3.538;2023-08-24T12:22:49;9.82;;;4.85;;
32705;SDS011;19094;50.972;3.538;2023-08-24T12:25:16;7.28;;;4.45;;
32705;SDS011;19094;50.972;3.538;2023-08-24T12:27:42;13.65;;;4.50;;
32705;SDS011;19094;50.972;3.538;2023-08-24T12:30:07;6.03;;;4.15;;
32705;SDS011;19094;50.972;3.538;2023-08-24T12:32:48;8.35;;;4.88;;
32705;SDS011;19094;50.972;3.538;2023-08-24T12:35:15;6.40;;;3.83;;
32705;SDS011;19094;50.972;3.538;2023-08-24T12:37:41;7.22;;;4.38;;
32705;SDS011;19094;50.972;3.538;2023-08-24T12:40:07;5.15;;;3.65;;
32705;SDS011;19094;50.972;3.538;2023-08-24T12:42:33;10.02;;;3.80;;
32705;SDS011;19094;50.972;3.538;2023-08-24T12:45:00;6.43;;;4.65;;
32705;SDS011;19094;50.972;3.538;2023-08-24T12:47:26;8.07;;;4.70;;
32705;SDS011;19094;50.972;3.538;2023-08-24T12:49:51;13.35;;;4.90;;
32705;SDS011;19094;50.972;3.538;2023-08-24T12:52:19;9.13;;;3.50;;
32705;SDS011;19094;50.972;3.538;2023-08-24T12:54:45;6.78;;;4.00;;
32705;SDS011;19094;50.972;3.538;2023-08-24T12:57:10;8.75;;;4.32;;
32705;SDS011;19094;50.972;3.538;2023-08-24T12:59:37;9.52;;;4.43;;
32705;SDS011;19094;50.972;3.538;2023-08-24T13:02:03;9.63;;;4.43;;
32705;SDS011;19094;50.972;3.538;2023-08-24T13:04:29;9.80;;;4.28;;
32705;SDS011;19094;50.972;3.538;2023-08-24T13:06:57;9.48;;;4.57;;
32705;SDS011;19094;50.972;3.538;2023-08-24T13:09:23;8.02;;;4.32;;
32705;SDS011;19094;50.972;3.538;2023-08-24T13:11:49;9.40;;;3.90;;
32705;SDS011;19094;50.972;3.538;2023-08-24T13:14:15;8.55;;;3.78;;
32705;SDS011;19094;50.972;3.538;2023-08-24T13:16:40;7.70;;;3.58;;
32705;SDS011;19094;50.972;3.538;2023-08-24T13:19:06;4.63;;;3.17;;
32705;SDS011;19094;50.972;3.538;2023-08-24T13:21:32;5.68;;;3.35;;
32705;SDS011;19094;50.972;3.538;2023-08-24T13:23:58;10.80;;;3.60;;
32705;SDS011;19094;50.972;3.538;2023-08-24T13:26:24;9.48;;;4.03;;
32705;SDS011;19094;50.972;3.538;2023-08-24T13:28:50;6.60;;;3.47;;
32705;SDS011;19094;50.972;3.538;2023-08-24T13:31:16;4.75;;;3.22;;
32705;SDS011;19094;50.972;3.538;2023-08-24T13:33:43;8.43;;;3.33;;
32705;SDS011;19094;50.972;3.538;2023-08-24T13:36:10;6.65;;;3.40;;
32705;SDS011;19094;50.972;3.538;2023-08-24T13:38:36;5.97;;;3.03;;
32705;SDS011;19094;50.972;3.538;2023-08-24T13:41:01;7.97;;;3.53;;
32705;SDS011;19094;50.972;3.538;2023-08-24T13:43:28;8.07;;;3.25;;
32705;SDS011;19094;50.972;3.538;2023-08-24T13:45:54;5.65;;;3.35;;
32705;SDS011;19094;50.972;3.538;2023-08-24T13:48:20;5.75;;;3.28;;
32705;SDS011;19094;50.972;3.538;2023-08-24T13:50:52;11.65;;;3.10;;
32705;SDS011;19094;50.972;3.538;2023-08-24T13:53:18;5.13;;;3.05;;
32705;SDS011;19094;50.972;3.538;2023-08-24T13:55:44;7.07;;;2.88;;
32705;SDS011;19094;50.972;3.538;2023-08-24T13:58:10;4.47;;;2.60;;
32705;SDS011;19094;50.972;3.538;2023-08-24T14:00:36;6.60;;;3.05;;
32705;SDS011;19094;50.972;3.538;2023-08-24T14:03:02;6.55;;;2.95;;
32705;SDS011;19094;50.972;3.538;2023-08-24T14:05:28;7.15;;;3.55;;
32705;SDS011;19094;50.972;3.538;2023-08-24T14:07:54;5.18;;;2.95;;
32705;SDS011;19094;50.972;3.538;2023-08-24T14:10:19;7.90;;;3.65;;
32705;SDS011;19094;50.972;3.538;2023-08-24T14:12:45;7.85;;;3.10;;
32705;SDS011;19094;50.972;3.538;2023-08-24T14:15:11;6.88;;;3.10;;
32705;SDS011;19094;50.972;3.538;2023-08-24T14:17:37;6.80;;;3.03;;
32705;SDS011;19094;50.972;3.538;2023-08-24T14:20:03;6.80;;;3.05;;
32705;SDS011;19094;50.972;3.538;2023-08-24T14:22:29;8.80;;;2.80;;
32705;SDS011;19094;50.972;3.538;2023-08-24T14:24:55;8.52;;;3.15;;
32705;SDS011;19094;50.972;3.538;2023-08-24T14:27:20;5.50;;;2.83;;
32705;SDS011;19094;50.972;3.538;2023-08-24T14:29:46;8.65;;;2.65;;
32705;SDS011;19094;50.972;3.538;2023-08-24T14:32:12;7.30;;;2.17;;
32705;SDS011;19094;50.972;3.538;2023-08-24T14:34:38;11.55;;;2.85;;
32705;SDS011;19094;50.972;3.538;2023-08-24T14:37:03;6.47;;;2.78;;
32705;SDS011;19094;50.972;3.538;2023-08-24T14:39:29;6.63;;;2.83;;
32705;SDS011;19094;50.972;3.538;2023-08-24T14:41:55;4.05;;;2.70;;
32705;SDS011;19094;50.972;3.538;2023-08-24T14:44:21;5.00;;;3.00;;
32705;SDS011;19094;50.972;3.538;2023-08-24T14:46:46;6.63;;;3.30;;
32705;SDS011;19094;50.972;3.538;2023-08-24T14:49:12;4.78;;;2.88;;